Sun Valley, CA

11:56 PM PDT am 27. September 2016 (GMT -0700)
Burbank-Glendale-Pasadena | | Change Station

Höhe 774 ft 34.20 °N, 118.36 °W | Updated 3 minutes ago

Clear
Heiter
79 °F
gefühlte 79 °F
N
0
Wind Wechselnd Wind aus Nord

Heute
Max. -- | schwach -- °F
--% Regenrisiko
Gestern
Max. -- | schwach -- °F
Precip. -- inch
Druck 29.86 inch
Sichtweite 10.0 Meilen
Wolken Heiter
Taupunkt 48 °F
Feuchtigkeit 34%
Regen 0.00 inch
Schneehöhe Nicht verfügbar..
6:45 AM 6:42 PM
Letztes Viertel, 7% visible
METAR KBUR 280653Z 00000KT 10SM CLR 26/09 A2990 RMK AO2 SLP109 T02610089
Druck 29.86 inch
Sichtweite 10.0 Meilen
Wolken Heiter
Taupunkt 48 °F
Feuchtigkeit 34%
Regen 0.00 inch
Schneehöhe Nicht verfügbar..
6:45 AM 6:42 PM
Letztes Viertel, 7% visible
METAR KBUR 280653Z 00000KT 10SM CLR 26/09 A2990 RMK AO2 SLP109 T02610089

10-Day Weather Forecast

Almanac

Astronomie

Sep. 27, 2016 Aufgang Untergang
Genaue Zeit
Bürgerliche Dämmerung
Nautische Dämmerung
Astronomische Dämmerung
Mond
Länge des sichtbaren Lichts
Tageslänge
Tomorrow will be .
, % of the Moon is Illuminated

Heutige Rekorde

State Highs State Lows

Community

WunderPhotos

Upload Photos

1,942,216 Fotos hochgeladen!

WunderBlog® & News

Nearby

Luftqualität

  Luftqualität LQ Index Schadstoff
Not available.

Schneehöhe

Station Depth Höhe

Erdbebenaktivität

Stadt Distance Mag. Time & Date
Minimum magnitude displayed is 2.5.

küstennahe Wassertemperaturen

Ort Temperatur

Stations

Wetterstationen in der Umgebung

Stationsstandort Temp. Windchill Taupunkt Feuchtigkeit Wind Precip. Höhe Aktualisiert Art
                   

Watches & Warnings

There are currently no watches in effect.